Time;durP1;ratioP1;P1;durP2;ratioP2;P2;SDS_P1;SDS_P2;PMS_P1;PMS_P2;Temp;Humidity;BMP_temperature;BMP_pressure;BME280_temperature;BME280_humidity;BME280_pressure;Samples;Min_cycle;Max_cycle;Signal;HPM_P1;HPM_P2
2023/05/26 00:02:05;;;;;;;0.65;0.15;;;;;;;15.17;100.00;102905.50;10466042;28;20073;-79
2023/05/26 00:07:07;;;;;;;7.93;1.98;;;;;;;15.46;100.00;102918.72;10435261;28;20152;-79
2023/05/26 00:12:09;;;;;;;0.28;0.22;;;;;;;15.10;100.00;102919.06;10440427;28;20041;-79
2023/05/26 00:17:11;;;;;;;0.22;0.17;;;;;;;15.33;100.00;102921.66;10479633;28;20074;-79
2023/05/26 00:22:14;;;;;;;0.73;0.35;;;;;;;15.29;100.00;102920.66;10439320;28;20060;-79
2023/05/26 00:27:16;;;;;;;5.22;0.50;;;;;;;15.24;100.00;102922.22;10468418;28;20051;-79
2023/05/26 00:32:17;;;;;;;0.65;0.20;;;;;;;15.13;100.00;102928.66;10441860;28;20041;-79
2023/05/26 00:37:21;;;;;;;0.65;0.20;;;;;;;15.26;100.00;102930.94;10435173;28;20041;-79
2023/05/26 00:42:23;;;;;;;1.33;0.75;;;;;;;15.41;100.00;102934.97;10432578;28;20044;-79
2023/05/26 00:47:26;;;;;;;0.75;0.15;;;;;;;15.16;100.00;102942.66;10462580;28;20449;-79
2023/05/26 00:52:29;;;;;;;0.52;0.20;;;;;;;15.05;100.00;102936.16;10431881;28;20053;-79
2023/05/26 00:57:33;;;;;;;0.98;0.40;;;;;;;14.96;100.00;102931.50;10437150;28;20056;-79
2023/05/26 01:02:35;;;;;;;0.40;0.40;;;;;;;15.41;100.00;102938.44;10452128;28;20052;-79
2023/05/26 01:07:37;;;;;;;0.10;0.10;;;;;;;15.20;100.00;102935.88;10467208;28;20422;-79
2023/05/26 01:12:49;;;;;;;0.13;0.13;;;;;;;14.83;100.00;102930.13;10458088;28;20175;-79
2023/05/26 01:17:57;;;;;;;0.00;0.00;;;;;;;15.15;100.00;102932.22;10424185;28;20045;-79
2023/05/26 01:23:19;;;;;;;4.65;0.20;;;;;;;15.25;100.00;102938.66;10435139;28;20048;-79
2023/05/26 01:28:25;;;;;;;2.25;1.02;;;;;;;14.96;100.00;102938.38;10466181;28;20147;-79
2023/05/26 01:33:27;;;;;;;0.00;0.00;;;;;;;15.14;100.00;102939.13;10462714;28;20048;-79
2023/05/26 01:38:29;;;;;;;0.63;0.25;;;;;;;14.80;100.00;102942.09;10430470;28;20539;-79
2023/05/26 01:43:38;;;;;;;0.22;0.22;;;;;;;14.61;100.00;102936.09;10466099;28;20064;-79
2023/05/26 01:48:47;;;;;;;1.65;0.75;;;;;;;14.39;100.00;102936.91;10448425;28;20419;-80
2023/05/26 01:53:53;;;;;;;0.08;0.08;;;;;;;14.98;100.00;102944.53;10457837;28;20419;-79
2023/05/26 01:58:56;;;;;;;0.35;0.32;;;;;;;14.70;100.00;102954.66;10453304;28;20049;-80
2023/05/26 02:03:58;;;;;;;0.10;0.10;;;;;;;14.39;100.00;102962.84;10440924;28;20095;-80
2023/05/26 02:09:00;;;;;;;0.03;0.03;;;;;;;14.26;100.00;102962.28;10452736;28;20622;-80
2023/05/26 02:14:02;;;;;;;1.80;0.70;;;;;;;14.44;100.00;102957.00;10443596;28;20049;-80
2023/05/26 02:19:04;;;;;;;0.00;0.00;;;;;;;14.19;100.00;102965.41;10455327;28;20041;-79
2023/05/26 02:24:09;;;;;;;0.03;0.03;;;;;;;14.35;100.00;102971.28;10445068;28;20259;-79
2023/05/26 02:29:11;;;;;;;0.10;0.10;;;;;;;14.41;100.00;102961.16;10456758;28;20044;-80
2023/05/26 02:34:13;;;;;;;1.48;0.57;;;;;;;14.00;100.00;102966.31;10444140;28;20048;-80
2023/05/26 02:39:16;;;;;;;0.25;0.25;;;;;;;14.01;100.00;102956.84;10449817;28;20394;-80
2023/05/26 02:44:17;;;;;;;0.08;0.03;;;;;;;14.42;100.00;102968.13;10456025;28;20090;-79
2023/05/26 02:49:20;;;;;;;0.05;0.05;;;;;;;14.38;100.00;102961.06;10442512;28;20146;-80
2023/05/26 02:54:21;;;;;;;0.08;0.08;;;;;;;14.09;100.00;102958.09;10456804;28;20139;-80
2023/05/26 02:59:23;;;;;;;0.30;0.30;;;;;;;14.09;100.00;102965.84;10478570;28;20037;-80
2023/05/26 03:04:25;;;;;;;0.30;0.30;;;;;;;14.43;100.00;102964.72;10478388;28;20049;-80
2023/05/26 03:09:26;;;;;;;0.00;0.00;;;;;;;14.14;100.00;102973.84;10483147;28;20041;-79
2023/05/26 03:14:28;;;;;;;1.35;0.43;;;;;;;14.04;100.00;102970.81;10447342;28;20045;-80
2023/05/26 03:19:30;;;;;;;0.00;0.00;;;;;;;13.92;100.00;102973.75;10460412;28;20573;-79
2023/05/26 03:24:32;;;;;;;0.28;0.28;;;;;;;13.90;100.00;102977.09;10440429;28;20492;-79
2023/05/26 03:29:34;;;;;;;0.52;0.45;;;;;;;13.69;100.00;102979.59;10452117;28;20059;-80
2023/05/26 03:34:39;;;;;;;0.52;0.17;;;;;;;13.69;100.00;102971.81;10444368;28;20048;-80
2023/05/26 03:39:41;;;;;;;0.47;0.32;;;;;;;14.26;100.00;102971.78;10458378;28;20052;-79
2023/05/26 03:44:43;;;;;;;0.95;0.88;;;;;;;13.74;100.00;102971.22;10470301;28;20037;-80
2023/05/26 03:49:45;;;;;;;0.65;0.65;;;;;;;14.05;100.00;102976.88;10456788;28;20131;-80
2023/05/26 03:54:48;;;;;;;0.52;0.35;;;;;;;13.95;100.00;102971.31;10453833;28;20411;-80
2023/05/26 03:59:49;;;;;;;0.08;0.03;;;;;;;13.74;100.00;102976.41;10445754;28;20496;-80
2023/05/26 04:04:51;;;;;;;0.52;0.45;;;;;;;13.96;100.00;102980.84;10444650;28;20079;-80
2023/05/26 04:09:53;;;;;;;2.13;0.40;;;;;;;14.08;100.00;102984.81;10457285;28;20508;-79
2023/05/26 04:14:54;;;;;;;0.13;0.13;;;;;;;13.38;100.00;102983.28;10445756;28;20419;-80
2023/05/26 04:19:56;;;;;;;4.85;0.52;;;;;;;13.93;100.00;102983.31;10460489;28;20137;-79
2023/05/26 04:24:58;;;;;;;0.55;0.25;;;;;;;14.40;100.00;102991.41;10429189;28;20057;-79
2023/05/26 04:30:20;;;;;;;0.00;0.00;;;;;;;14.10;100.00;102990.97;10462945;28;20059;-79
2023/05/26 04:35:40;;;;;;;0.10;0.10;;;;;;;14.20;100.00;102997.44;10438646;28;20037;-79
2023/05/26 04:40:42;;;;;;;2.08;0.95;;;;;;;14.33;100.00;103004.06;10452297;28;20045;-79
2023/05/26 04:45:44;;;;;;;0.28;0.28;;;;;;;14.66;100.00;102999.47;10452120;28;20136;-79
2023/05/26 04:50:46;;;;;;;0.10;0.10;;;;;;;14.23;100.00;103006.25;10440230;28;20053;-79
2023/05/26 04:55:48;;;;;;;0.20;0.17;;;;;;;14.94;100.00;103004.91;10442766;28;20140;-79
2023/05/26 05:00:53;;;;;;;0.35;0.13;;;;;;;14.98;100.00;103007.69;10450368;28;20045;-79
2023/05/26 05:06:15;;;;;;;0.20;0.20;;;;;;;14.60;100.00;103015.63;10429732;28;20053;-79
2023/05/26 05:11:17;;;;;;;0.30;0.30;;;;;;;15.18;100.00;103011.13;10460239;28;20049;-79
2023/05/26 05:16:20;;;;;;;1.95;0.20;;;;;;;15.15;100.00;103010.09;10463176;28;20539;-79
2023/05/26 05:21:23;;;;;;;0.30;0.13;;;;;;;15.14;100.00;103014.44;10469459;28;20132;-79
2023/05/26 05:26:28;;;;;;;0.00;0.00;;;;;;;14.79;100.00;103016.44;10439951;28;20088;-80
2023/05/26 05:31:31;;;;;;;0.52;0.38;;;;;;;15.28;100.00;103021.88;10445962;28;20072;-79
2023/05/26 05:36:33;;;;;;;0.98;0.38;;;;;;;14.66;100.00;103037.50;10454068;28;20131;-81
2023/05/26 05:41:37;;;;;;;0.55;0.55;;;;;;;16.34;100.00;103027.69;10451846;28;20504;-80
2023/05/26 05:46:39;;;;;;;0.20;0.10;;;;;;;16.02;100.00;103033.44;10451104;28;20051;-80
2023/05/26 05:51:54;;;;;;;1.77;0.80;;;;;;;15.96;100.00;103040.16;10456794;28;20045;-80
2023/05/26 05:56:56;;;;;;;0.90;0.68;;;;;;;16.31;100.00;103043.16;10452993;28;20518;-79
2023/05/26 06:01:59;;;;;;;0.30;0.30;;;;;;;16.23;100.00;103049.78;10440630;28;20045;-79
2023/05/26 06:07:00;;;;;;;0.28;0.15;;;;;;;16.61;100.00;103055.50;10440917;28;20055;-80
2023/05/26 06:12:02;;;;;;;2.45;0.10;;;;;;;16.89;100.00;103057.34;10451106;28;20136;-78
2023/05/26 06:17:05;;;;;;;0.35;0.30;;;;;;;16.45;100.00;103060.16;10441715;28;20049;-78
2023/05/26 06:22:06;;;;;;;0.55;0.55;;;;;;;17.15;100.00;103046.94;10449538;28;20049;-79
2023/05/26 06:27:09;;;;;;;1.25;0.45;;;;;;;16.15;100.00;103046.94;10467074;28;20475;-79
2023/05/26 06:32:12;;;;;;;2.45;0.57;;;;;;;16.49;100.00;103055.94;10463282;28;20055;-79
2023/05/26 06:37:15;;;;;;;0.52;0.43;;;;;;;16.43;100.00;103059.19;10435753;28;20509;-79
2023/05/26 06:42:17;;;;;;;0.90;0.73;;;;;;;17.67;100.00;103044.22;10459187;28;20136;-80
2023/05/26 06:47:23;;;;;;;0.47;0.20;;;;;;;16.84;100.00;103060.63;10448941;28;20396;-79
2023/05/26 06:52:26;;;;;;;2.92;1.80;;;;;;;16.78;100.00;103056.06;10471352;28;20052;-78
2023/05/26 06:57:27;;;;;;;2.63;0.43;;;;;;;17.32;99.30;103059.63;10461645;28;20110;-78
2023/05/26 07:02:29;;;;;;;0.10;0.10;;;;;;;18.43;96.52;103049.94;10469478;28;20042;-79
2023/05/26 07:07:49;;;;;;;0.22;0.10;;;;;;;17.80;94.50;103062.00;10467881;28;20049;-80
2023/05/26 07:12:51;;;;;;;1.95;1.05;;;;;;;18.40;91.47;103062.88;10452815;28;20479;-80
2023/05/26 07:18:03;;;;;;;0.95;0.73;;;;;;;19.15;92.53;103066.63;10440737;28;20114;-79
2023/05/26 07:23:05;;;;;;;1.45;0.38;;;;;;;18.47;91.85;103077.00;10473383;28;20045;-79
2023/05/26 07:28:06;;;;;;;0.32;0.32;;;;;;;19.16;86.46;103070.13;10472156;28;20048;-78
2023/05/26 07:33:09;;;;;;;0.30;0.30;;;;;;;18.36;89.31;103081.91;10448295;28;20373;-79
2023/05/26 07:38:11;;;;;;;0.47;0.28;;;;;;;19.93;85.50;103071.03;10451115;28;20491;-78
2023/05/26 07:43:13;;;;;;;0.10;0.10;;;;;;;20.22;83.91;103071.63;10453845;28;20059;-80
2023/05/26 07:48:15;;;;;;;2.50;0.35;;;;;;;21.33;79.78;103071.91;10443164;28;20045;-79
2023/05/26 07:53:19;;;;;;;0.08;0.08;;;;;;;20.82;85.35;103069.28;10493589;28;20041;-79
2023/05/26 07:58:21;;;;;;;8.77;1.88;;;;;;;19.99;84.02;103059.84;10447994;28;20061;-80
2023/05/26 08:03:22;;;;;;;0.52;0.52;;;;;;;19.31;83.96;103056.53;10448828;28;20048;-79
2023/05/26 08:08:31;;;;;;;0.45;0.38;;;;;;;19.39;84.55;103060.22;10469996;28;20136;-79
2023/05/26 08:13:32;;;;;;;0.93;0.63;;;;;;;20.24;81.22;103069.94;10449007;28;20037;-80
2023/05/26 08:18:34;;;;;;;0.13;0.13;;;;;;;20.03;80.35;103059.03;10456752;28;20135;-79
2023/05/26 08:23:37;;;;;;;0.28;0.28;;;;;;;20.27;81.26;103059.53;10461322;28;20072;-79
2023/05/26 08:28:38;;;;;;;0.35;0.35;;;;;;;21.13;79.46;103045.38;10461591;28;20486;-80
2023/05/26 08:33:40;;;;;;;0.10;0.00;;;;;;;20.42;79.11;103053.72;10454424;28;20064;-81
2023/05/26 08:38:42;;;;;;;0.30;0.30;;;;;;;21.39;76.16;103051.00;10468226;28;20045;-79
2023/05/26 08:43:58;;;;;;;4.25;0.30;;;;;;;21.77;74.26;103055.94;10442746;28;20068;-80
2023/05/26 08:49:09;;;;;;;1.75;0.65;;;;;;;22.28;71.74;103055.69;10455465;28;20049;-81
2023/05/26 08:54:11;;;;;;;0.65;0.30;;;;;;;22.15;74.36;103055.53;10438666;28;20084;-79
2023/05/26 08:59:15;;;;;;;0.93;0.30;;;;;;;22.72;75.28;103055.28;10457782;28;20045;-79
2023/05/26 09:04:17;;;;;;;0.15;0.15;;;;;;;21.67;76.49;103051.44;10447330;28;20175;-79
2023/05/26 09:09:19;;;;;;;0.15;0.15;;;;;;;23.36;70.21;103038.28;10437473;28;20037;-79
2023/05/26 09:14:21;;;;;;;1.25;0.45;;;;;;;21.41;72.16;103038.78;10437544;28;20063;-80
2023/05/26 09:19:26;;;;;;;0.80;0.52;;;;;;;23.33;68.43;103030.38;10463399;28;20041;-79
2023/05/26 09:24:27;;;;;;;0.35;0.30;;;;;;;23.85;64.86;103044.69;10445819;28;20044;-78
2023/05/26 09:29:29;;;;;;;0.50;0.50;;;;;;;22.23;67.69;103047.75;10468692;28;20036;-79
2023/05/26 09:34:31;;;;;;;0.93;0.77;;;;;;;22.99;71.68;103048.50;10432939;28;20073;-79
2023/05/26 09:39:33;;;;;;;0.22;0.20;;;;;;;22.45;73.87;103048.88;10447960;28;20085;-79
2023/05/26 09:44:35;;;;;;;0.00;0.00;;;;;;;21.68;63.97;103058.44;10455950;28;20049;-80
2023/05/26 09:49:37;;;;;;;0.75;0.75;;;;;;;22.91;68.53;103042.28;10464306;28;20392;-79
2023/05/26 09:54:40;;;;;;;0.32;0.28;;;;;;;24.04;66.80;103050.94;10435319;28;20404;-78
2023/05/26 09:59:53;;;;;;;0.60;0.52;;;;;;;23.50;64.49;103046.25;10438273;28;20439;-79
2023/05/26 10:04:57;;;;;;;11.23;0.63;;;;;;;24.98;63.25;103043.16;10455303;28;20053;-78
2023/05/26 10:10:00;;;;;;;0.55;0.22;;;;;;;23.01;64.53;103054.66;10439180;28;20045;-79
2023/05/26 10:15:03;;;;;;;5.32;1.25;;;;;;;23.71;63.07;103050.75;10446142;28;20053;-80
2023/05/26 10:20:06;;;;;;;0.85;0.38;;;;;;;22.66;61.42;103055.22;10464818;28;20048;-82
2023/05/26 10:25:26;;;;;;;1.48;0.63;;;;;;;23.26;60.37;103047.00;10479450;28;20091;-80
2023/05/26 10:30:28;;;;;;;2.53;0.68;;;;;;;23.96;61.51;103037.72;10467948;28;20045;-80
2023/05/26 10:35:32;;;;;;;1.77;0.95;;;;;;;25.10;59.95;103020.31;10468053;28;20076;-80
2023/05/26 10:40:33;;;;;;;1.08;0.70;;;;;;;23.93;59.22;103019.31;10454402;28;20041;-80
2023/05/26 10:45:45;;;;;;;0.30;0.20;;;;;;;25.13;54.94;103009.78;10492494;28;20102;-81
2023/05/26 10:50:59;;;;;;;1.55;0.68;;;;;;;25.32;56.50;103007.94;10464986;28;20074;-80
2023/05/26 10:56:08;;;;;;;0.90;0.40;;;;;;;22.99;55.69;103016.94;10441534;28;20041;-80
2023/05/26 11:01:19;;;;;;;0.32;0.17;;;;;;;24.76;54.03;103004.53;10484901;28;20047;-80
2023/05/26 11:06:52;;;;;;;1.85;0.38;;;;;;;24.44;58.02;103008.00;10466534;28;20388;-79
2023/05/26 11:11:59;;;;;;;0.60;0.30;;;;;;;25.83;53.27;102991.94;10432612;28;20090;-78
2023/05/26 11:17:03;;;;;;;2.70;0.43;;;;;;;25.01;52.98;103006.25;10430173;28;20052;-78
2023/05/26 11:22:09;;;;;;;0.08;0.08;;;;;;;26.05;52.71;102997.09;10459177;28;20048;-79
2023/05/26 11:27:11;;;;;;;0.08;0.08;;;;;;;24.82;55.88;102996.63;10435285;28;20057;-79
2023/05/26 11:32:13;;;;;;;1.35;0.73;;;;;;;24.80;56.93;102995.72;10459635;28;20044;-78
2023/05/26 11:37:15;;;;;;;0.10;0.10;;;;;;;24.54;53.58;103004.47;10473874;28;20041;-80
2023/05/26 11:42:16;;;;;;;0.30;0.28;;;;;;;24.60;53.00;102996.59;10436010;28;20048;-78
2023/05/26 11:47:21;;;;;;;3.60;0.25;;;;;;;24.96;55.74;102992.22;10455655;28;20045;-78
2023/05/26 11:52:23;;;;;;;4.55;1.00;;;;;;;25.45;52.19;102979.78;10464623;28;20128;-79
2023/05/26 11:57:25;;;;;;;1.35;0.63;;;;;;;26.57;54.10;102980.91;10440425;28;20407;-78
2023/05/26 12:02:27;;;;;;;0.55;0.35;;;;;;;25.90;49.88;102983.09;10452661;28;20491;-79
2023/05/26 12:07:30;;;;;;;0.10;0.10;;;;;;;25.50;50.70;102983.31;10455927;28;20044;-79
2023/05/26 12:12:46;;;;;;;0.08;0.08;;;;;;;25.72;50.24;102978.81;10454642;28;20041;-80
2023/05/26 12:17:50;;;;;;;0.45;0.40;;;;;;;26.78;53.11;102978.13;10446228;28;20073;-79
2023/05/26 12:23:03;;;;;;;0.93;0.20;;;;;;;26.38;48.32;102974.03;10437910;28;20454;-80
2023/05/26 12:28:04;;;;;;;0.38;0.38;;;;;;;26.45;53.21;102981.03;10449012;28;20515;-78
2023/05/26 12:33:06;;;;;;;0.00;0.00;;;;;;;25.56;56.71;102972.72;10443140;28;20095;-79
2023/05/26 12:38:11;;;;;;;0.80;0.80;;;;;;;24.85;49.43;102972.88;10444463;28;20098;-80
2023/05/26 12:43:13;;;;;;;0.20;0.20;;;;;;;25.94;56.82;102969.03;10469509;28;20041;-78
2023/05/26 12:48:15;;;;;;;1.60;0.20;;;;;;;25.43;48.97;102982.44;10456455;28;20516;-80
2023/05/26 12:53:16;;;;;;;0.40;0.38;;;;;;;24.98;52.64;102963.19;10470825;28;20388;-79
2023/05/26 12:58:20;;;;;;;0.15;0.10;;;;;;;24.62;52.03;102955.28;10449553;28;20051;-80
2023/05/26 13:03:21;;;;;;;1.77;0.45;;;;;;;26.01;49.08;102955.75;10469724;28;20045;-78
2023/05/26 13:08:23;;;;;;;2.88;1.40;;;;;;;26.60;56.81;102949.16;10459550;28;20040;-78
2023/05/26 13:13:26;;;;;;;0.03;0.03;;;;;;;25.42;52.35;102959.56;10445775;28;20500;-78
2023/05/26 13:18:27;;;;;;;0.00;0.00;;;;;;;26.24;55.73;102951.25;10487647;28;20513;-78
2023/05/26 13:23:29;;;;;;;1.10;0.35;;;;;;;25.53;55.78;102950.75;10444823;28;20364;-81
2023/05/26 13:28:31;;;;;;;0.20;0.20;;;;;;;26.08;51.13;102931.97;10462333;28;20130;-80
2023/05/26 13:33:34;;;;;;;0.50;0.43;;;;;;;26.43;49.35;102941.41;10432965;28;20061;-78
2023/05/26 13:38:36;;;;;;;3.65;0.95;;;;;;;26.24;54.78;102932.75;10456305;28;20066;-78
2023/05/26 13:43:38;;;;;;;1.15;0.30;;;;;;;26.49;51.88;102929.00;10440920;28;20047;-79
2023/05/26 13:48:39;;;;;;;1.20;0.73;;;;;;;24.86;50.18;102930.72;10455069;28;20044;-79
2023/05/26 13:53:41;;;;;;;0.20;0.20;;;;;;;26.37;50.64;102924.72;10449262;28;20060;-79
2023/05/26 13:58:43;;;;;;;2.35;0.30;;;;;;;26.03;53.10;102920.53;10469615;28;20049;-79
2023/05/26 14:04:02;;;;;;;0.00;0.00;;;;;;;24.98;48.30;102924.50;10462996;28;20132;-80
2023/05/26 14:09:10;;;;;;;0.75;0.32;;;;;;;26.28;49.23;102923.88;10454539;28;20433;-78
2023/05/26 14:14:12;;;;;;;0.70;0.13;;;;;;;26.67;49.33;102912.09;10460120;28;20094;-78
2023/05/26 14:19:14;;;;;;;5.30;1.25;;;;;;;25.81;47.97;102914.50;10459016;28;20056;-79
2023/05/26 14:24:26;;;;;;;8.00;0.98;;;;;;;25.81;50.53;102909.22;10451986;28;20045;-81
2023/05/26 14:29:27;;;;;;;0.47;0.22;;;;;;;25.36;49.73;102914.72;10466859;28;20055;-80
2023/05/26 14:34:29;;;;;;;4.15;0.28;;;;;;;26.26;49.14;102907.16;10460786;28;20532;-79
2023/05/26 14:39:31;;;;;;;0.50;0.30;;;;;;;26.65;46.70;102909.47;10462003;28;20106;-79
2023/05/26 14:44:32;;;;;;;0.85;0.60;;;;;;;27.21;50.73;102893.88;10457999;28;20561;-79
2023/05/26 14:49:36;;;;;;;1.00;0.28;;;;;;;26.01;48.56;102895.88;10441401;28;20500;-79
2023/05/26 14:54:38;;;;;;;1.10;0.57;;;;;;;25.37;48.89;102902.41;10458267;28;20052;-80
2023/05/26 14:59:40;;;;;;;2.35;1.13;;;;;;;25.81;45.77;102899.56;10477061;28;20052;-79
2023/05/26 15:04:41;;;;;;;0.10;0.10;;;;;;;25.55;45.88;102891.78;10461352;28;20060;-81
2023/05/26 15:09:43;;;;;;;0.17;0.17;;;;;;;25.27;43.74;102899.81;10461695;28;20411;-78
2023/05/26 15:14:45;;;;;;;0.57;0.20;;;;;;;25.37;46.33;102897.13;10469325;28;20064;-79
2023/05/26 15:19:46;;;;;;;0.17;0.10;;;;;;;24.92;47.88;102897.28;10461677;28;20091;-80
2023/05/26 15:24:48;;;;;;;0.32;0.32;;;;;;;24.76;47.53;102893.84;10460479;28;20064;-80
2023/05/26 15:29:49;;;;;;;0.63;0.20;;;;;;;25.34;50.47;102893.63;10454712;28;20148;-79
2023/05/26 15:34:51;;;;;;;3.25;0.82;;;;;;;24.74;48.67;102887.69;10456199;28;20415;-82
2023/05/26 15:39:53;;;;;;;0.08;0.05;;;;;;;25.30;49.19;102883.97;10454812;28;20080;-79
2023/05/26 15:44:55;;;;;;;0.35;0.35;;;;;;;24.30;47.35;102889.44;10443490;28;20076;-81
2023/05/26 15:49:56;;;;;;;0.28;0.15;;;;;;;25.41;47.81;102883.94;10484200;28;20049;-81
2023/05/26 15:54:58;;;;;;;0.17;0.15;;;;;;;24.69;48.21;102882.41;10444027;28;20142;-81
2023/05/26 16:00:00;;;;;;;1.00;0.30;;;;;;;23.87;48.05;102888.50;10461579;28;20041;-82
2023/05/26 16:05:01;;;;;;;0.00;0.00;;;;;;;24.42;48.00;102880.66;10462965;28;20521;-81
2023/05/26 16:10:03;;;;;;;0.75;0.65;;;;;;;24.87;47.88;102881.50;10475133;28;20060;-80
2023/05/26 16:15:05;;;;;;;0.30;0.20;;;;;;;25.40;47.86;102876.03;10483392;28;20048;-80
2023/05/26 16:20:07;;;;;;;0.43;0.13;;;;;;;24.04;48.72;102888.56;10436388;28;20061;-81
2023/05/26 16:25:09;;;;;;;0.20;0.10;;;;;;;24.77;49.21;102890.28;10465527;28;20050;-80
2023/05/26 16:30:12;;;;;;;0.45;0.28;;;;;;;25.21;50.13;102889.28;10458654;28;20044;-79
2023/05/26 16:35:17;;;;;;;0.30;0.30;;;;;;;23.93;49.49;102892.94;10435338;28;20051;-80
2023/05/26 16:40:19;;;;;;;0.15;0.10;;;;;;;24.08;50.15;102898.22;10430152;28;20148;-81
2023/05/26 16:45:20;;;;;;;0.00;0.00;;;;;;;24.25;48.67;102892.06;10438569;28;20557;-79
2023/05/26 16:50:22;;;;;;;5.05;0.25;;;;;;;24.12;48.73;102895.59;10456825;28;20041;-80
2023/05/26 16:55:25;;;;;;;0.20;0.15;;;;;;;24.08;49.38;102894.69;10455105;28;20056;-82
2023/05/26 17:00:27;;;;;;;0.47;0.17;;;;;;;24.05;49.73;102894.72;10444302;28;20043;-80
2023/05/26 17:05:29;;;;;;;0.47;0.38;;;;;;;24.49;50.24;102885.94;10461592;28;20653;-81
2023/05/26 17:10:30;;;;;;;2.28;1.08;;;;;;;23.27;52.90;102894.47;10438138;28;20491;-82
2023/05/26 17:15:32;;;;;;;0.50;0.10;;;;;;;24.57;54.23;102882.41;10459718;28;20490;-80
2023/05/26 17:20:34;;;;;;;0.20;0.20;;;;;;;24.20;52.22;102888.56;10451781;28;20136;-79
2023/05/26 17:25:35;;;;;;;0.00;0.00;;;;;;;23.34;53.33;102902.38;10433390;28;20044;-80
2023/05/26 17:30:37;;;;;;;0.52;0.32;;;;;;;22.87;54.64;102909.13;10456593;28;20504;-82
2023/05/26 17:35:39;;;;;;;0.10;0.10;;;;;;;22.98;58.58;102908.31;10453421;28;20120;-81
2023/05/26 17:40:40;;;;;;;0.28;0.28;;;;;;;22.60;60.45;102915.94;10464497;28;20058;-81
2023/05/26 17:45:42;;;;;;;0.65;0.35;;;;;;;22.38;62.91;102910.47;10454091;28;20049;-81
2023/05/26 17:50:44;;;;;;;5.35;1.05;;;;;;;22.40;64.31;102914.03;10448555;28;20525;-80
2023/05/26 17:55:46;;;;;;;1.38;0.35;;;;;;;21.78;65.98;102923.88;10464880;28;20076;-81
2023/05/26 18:00:47;;;;;;;0.10;0.10;;;;;;;21.95;65.67;102931.97;10460488;28;20044;-80
2023/05/26 18:05:49;;;;;;;0.43;0.08;;;;;;;21.77;65.15;102922.16;10449371;28;20052;-81
2023/05/26 18:10:51;;;;;;;0.35;0.30;;;;;;;21.01;67.98;102934.22;10436894;28;20265;-80
2023/05/26 18:15:52;;;;;;;0.17;0.15;;;;;;;20.96;67.98;102935.06;10434067;28;20123;-80
2023/05/26 18:20:54;;;;;;;0.35;0.35;;;;;;;21.45;67.68;102938.34;10459956;28;20488;-79
2023/05/26 18:25:56;;;;;;;0.10;0.00;;;;;;;21.30;70.56;102935.50;10456724;28;20051;-79
2023/05/26 18:30:58;;;;;;;1.33;1.10;;;;;;;20.97;70.19;102939.41;10447375;28;20044;-80
2023/05/26 18:36:00;;;;;;;0.10;0.10;;;;;;;20.87;70.90;102947.16;10460565;28;20045;-80
2023/05/26 18:41:01;;;;;;;3.83;0.52;;;;;;;19.81;71.90;102948.69;10477849;28;20049;-82
2023/05/26 18:46:03;;;;;;;0.05;0.05;;;;;;;20.28;70.80;102955.72;10454245;28;20412;-81
2023/05/26 18:51:05;;;;;;;1.00;0.30;;;;;;;20.92;69.01;102948.09;10449305;28;20057;-79
2023/05/26 18:56:08;;;;;;;0.45;0.35;;;;;;;20.89;70.01;102950.66;10447663;28;20514;-79
2023/05/26 19:01:09;;;;;;;0.57;0.32;;;;;;;20.26;71.68;102953.06;10475872;28;20448;-79
2023/05/26 19:06:11;;;;;;;0.10;0.00;;;;;;;20.72;70.07;102957.34;10462180;28;20049;-79
2023/05/26 19:11:13;;;;;;;0.00;0.00;;;;;;;21.03;69.28;102944.75;10467123;28;20041;-79
2023/05/26 19:16:14;;;;;;;0.28;0.20;;;;;;;20.79;69.94;102943.53;10454358;28;20041;-78
2023/05/26 19:21:16;;;;;;;0.10;0.00;;;;;;;20.80;70.20;102954.88;10452256;28;20087;-79
2023/05/26 19:26:18;;;;;;;0.38;0.30;;;;;;;21.07;69.72;102951.78;10449346;28;20123;-79
2023/05/26 19:31:19;;;;;;;0.43;0.10;;;;;;;20.33;72.23;102958.41;10445955;28;20072;-79
2023/05/26 19:36:21;;;;;;;1.95;1.25;;;;;;;20.43;71.68;102956.00;10439008;28;20056;-79
2023/05/26 19:41:23;;;;;;;0.35;0.30;;;;;;;20.24;72.73;102957.41;10445659;28;20521;-79
2023/05/26 19:46:24;;;;;;;0.10;0.10;;;;;;;20.55;71.74;102955.31;10424700;28;20075;-79
2023/05/26 19:51:26;;;;;;;3.30;0.10;;;;;;;20.22;73.05;102964.31;10442961;28;20049;-79
2023/05/26 19:56:27;;;;;;;0.00;0.00;;;;;;;19.65;75.08;102964.06;10462298;28;20090;-79
2023/05/26 20:01:29;;;;;;;0.08;0.08;;;;;;;19.93;74.37;102969.88;10444383;28;20041;-79
2023/05/26 20:06:31;;;;;;;0.55;0.15;;;;;;;19.42;75.92;102970.53;10463028;28;20377;-79
2023/05/26 20:11:33;;;;;;;0.13;0.13;;;;;;;19.58;75.80;102959.56;10442480;28;20042;-79
2023/05/26 20:16:35;;;;;;;0.22;0.20;;;;;;;19.02;79.29;102962.66;10466080;28;20040;-79
2023/05/26 20:21:38;;;;;;;0.05;0.05;;;;;;;19.20;79.03;102964.81;10451933;28;20071;-79
2023/05/26 20:26:39;;;;;;;0.00;0.00;;;;;;;18.91;80.34;102962.38;10431532;28;20048;-79
2023/05/26 20:31:41;;;;;;;2.17;0.28;;;;;;;19.02;80.22;102960.94;10455094;28;20049;-79
2023/05/26 20:36:43;;;;;;;0.20;0.20;;;;;;;19.02;80.97;102960.94;10452077;28;20080;-79
2023/05/26 20:41:44;;;;;;;2.25;0.68;;;;;;;18.64;82.33;102967.81;10443255;28;20045;-79
2023/05/26 20:46:46;;;;;;;0.00;0.00;;;;;;;18.37;83.66;102974.09;10435378;28;20061;-79
2023/05/26 20:51:48;;;;;;;0.63;0.05;;;;;;;18.18;84.33;102983.16;10434949;28;20140;-79
2023/05/26 20:56:49;;;;;;;0.10;0.10;;;;;;;18.19;85.20;102974.47;10432762;28;20053;-79
2023/05/26 21:01:51;;;;;;;0.20;0.20;;;;;;;18.19;84.27;102977.09;10466909;28;20033;-79
2023/05/26 21:06:53;;;;;;;1.30;1.02;;;;;;;18.20;84.55;102973.63;10434067;28;20111;-80
2023/05/26 21:11:58;;;;;;;4.53;1.45;;;;;;;18.07;85.86;102969.81;10464702;28;20073;-79
2023/05/26 21:17:00;;;;;;;1.92;1.75;;;;;;;17.71;86.71;102976.59;10449273;28;20045;-79
2023/05/26 21:22:02;;;;;;;3.85;1.05;;;;;;;17.75;87.53;102978.47;10430928;28;20099;-80
2023/05/26 21:27:05;;;;;;;10.07;0.40;;;;;;;17.74;87.58;102970.56;10457132;28;20483;-79
2023/05/26 21:32:07;;;;;;;0.32;0.30;;;;;;;17.37;88.32;102970.38;10449394;28;20072;-80
2023/05/26 21:37:10;;;;;;;0.52;0.52;;;;;;;17.51;88.01;102968.16;10434943;28;20415;-79
2023/05/26 21:42:11;;;;;;;0.00;0.00;;;;;;;17.51;88.05;102962.94;10427966;28;20045;-79
2023/05/26 21:47:13;;;;;;;0.10;0.10;;;;;;;17.15;88.84;102963.59;10427001;28;20061;-80
2023/05/26 21:52:15;;;;;;;0.65;0.30;;;;;;;17.30;88.26;102958.00;10444962;28;20098;-79
2023/05/26 21:57:17;;;;;;;0.10;0.10;;;;;;;17.75;86.79;102957.59;10445963;28;20044;-80
2023/05/26 22:02:19;;;;;;;0.65;0.30;;;;;;;17.23;89.66;102956.91;10446407;28;20048;-79
2023/05/26 22:07:20;;;;;;;0.15;0.05;;;;;;;17.17;89.50;102956.72;10439003;28;20099;-80
2023/05/26 22:12:22;;;;;;;0.00;0.00;;;;;;;17.02;89.99;102962.31;10415191;28;20432;-79
2023/05/26 22:17:24;;;;;;;1.25;0.68;;;;;;;17.19;90.01;102964.56;10449927;28;20103;-80
2023/05/26 22:22:26;;;;;;;0.00;0.00;;;;;;;16.75;91.25;102973.56;10451351;28;20041;-79
2023/05/26 22:27:27;;;;;;;0.17;0.10;;;;;;;16.50;92.12;102975.34;10441417;28;20057;-80
2023/05/26 22:32:30;;;;;;;0.10;0.10;;;;;;;17.02;89.67;102970.13;10456229;28;20435;-79
2023/05/26 22:37:33;;;;;;;0.00;0.00;;;;;;;16.54;92.37;102972.84;10439434;28;20076;-79
2023/05/26 22:42:35;;;;;;;0.45;0.20;;;;;;;16.75;91.30;102978.78;10453558;28;20041;-79
2023/05/26 22:47:37;;;;;;;0.40;0.30;;;;;;;16.33;91.67;102989.50;10454614;28;20076;-79
2023/05/26 22:52:39;;;;;;;0.32;0.32;;;;;;;16.56;91.00;102976.41;10443498;28;20041;-79
2023/05/26 22:57:41;;;;;;;1.20;0.60;;;;;;;16.35;91.79;102987.81;10453591;28;20143;-79
2023/05/26 23:02:43;;;;;;;0.00;0.00;;;;;;;16.37;91.71;102978.34;10451752;28;20060;-80
2023/05/26 23:07:45;;;;;;;0.15;0.15;;;;;;;15.92;92.80;102984.56;10441942;28;20491;-80